Time;durP1;ratioP1;P1;durP2;ratioP2;P2;SDS_P1;SDS_P2;PMS_P1;PMS_P2;Temp;Humidity;BMP_temperature;BMP_pressure;BME280_temperature;BME280_humidity;BME280_pressure;Samples;Min_cycle;Max_cycle;Signal;HPM_P1;HPM_P2
2023/10/26 00:00:27;;;;;;;0.93;0.35;;;;;;;;;;5075518;28;20056;-75
2023/10/26 00:02:53;;;;;;;0.32;0.32;;;;;;;;;;5064416;28;20072;-74
2023/10/26 00:05:19;;;;;;;0.20;0.20;;;;;;;;;;5057061;28;20024;-74
2023/10/26 00:07:45;;;;;;;0.28;0.20;;;;;;;;;;5062415;28;20048;-76
2023/10/26 00:10:11;;;;;;;0.20;0.10;;;;;;;;;;5064204;28;20040;-75
2023/10/26 00:12:38;;;;;;;0.28;0.20;;;;;;;;;;5062499;28;20025;-74
2023/10/26 00:15:04;;;;;;;0.55;0.20;;;;;;;;;;5046364;28;20492;-75
2023/10/26 00:17:30;;;;;;;0.22;0.20;;;;;;;;;;5049151;28;20372;-74
2023/10/26 00:19:56;;;;;;;0.25;0.10;;;;;;;;;;5045782;28;20034;-74
2023/10/26 00:22:22;;;;;;;0.60;0.47;;;;;;;;;;5041932;28;20033;-74
2023/10/26 00:24:49;;;;;;;0.20;0.20;;;;;;;;;;5048663;28;20037;-75
2023/10/26 00:27:15;;;;;;;0.30;0.30;;;;;;;;;;5062892;28;20399;-75
2023/10/26 00:29:42;;;;;;;0.15;0.13;;;;;;;;;;5059968;28;20078;-74
2023/10/26 00:32:08;;;;;;;0.30;0.30;;;;;;;;;;5054061;28;20064;-75
2023/10/26 00:34:34;;;;;;;0.63;0.35;;;;;;;;;;5052022;28;20070;-74
2023/10/26 00:37:00;;;;;;;0.28;0.28;;;;;;;;;;5053504;28;20033;-74
2023/10/26 00:39:27;;;;;;;0.85;0.30;;;;;;;;;;5052943;28;20463;-75
2023/10/26 00:41:53;;;;;;;1.75;0.43;;;;;;;;;;5053616;28;20048;-76
2023/10/26 00:44:20;;;;;;;0.30;0.30;;;;;;;;;;5046900;28;20427;-74
2023/10/26 00:46:46;;;;;;;0.65;0.20;;;;;;;;;;5032722;28;20388;-74
2023/10/26 00:49:15;;;;;;;0.38;0.22;;;;;;;;;;5032986;28;20083;-74
2023/10/26 00:51:41;;;;;;;1.13;0.50;;;;;;;;;;5033456;28;20024;-74
2023/10/26 00:54:08;;;;;;;1.02;0.30;;;;;;;;;;5052182;28;20422;-75
2023/10/26 00:56:35;;;;;;;0.32;0.20;;;;;;;;;;5060804;28;21390;-74
2023/10/26 00:59:03;;;;;;;0.20;0.20;;;;;;;;;;5073169;28;20028;-75
2023/10/26 01:01:30;;;;;;;0.35;0.20;;;;;;;;;;5073130;28;20029;-75
2023/10/26 01:03:57;;;;;;;0.13;0.13;;;;;;;;;;5072718;28;20441;-74
2023/10/26 01:06:23;;;;;;;0.47;0.22;;;;;;;;;;5037274;28;20406;-74
2023/10/26 01:08:49;;;;;;;0.10;0.10;;;;;;;;;;5034425;28;20033;-75
2023/10/26 01:11:16;;;;;;;0.08;0.08;;;;;;;;;;5050850;28;20108;-74
2023/10/26 01:13:42;;;;;;;0.10;0.10;;;;;;;;;;5051913;28;20083;-75
2023/10/26 01:16:08;;;;;;;0.45;0.20;;;;;;;;;;5039128;28;20083;-75
2023/10/26 01:18:34;;;;;;;0.13;0.10;;;;;;;;;;5032214;28;20052;-75
2023/10/26 01:21:00;;;;;;;0.10;0.10;;;;;;;;;;5032815;28;20096;-74
2023/10/26 01:23:26;;;;;;;0.35;0.20;;;;;;;;;;5032059;28;20037;-74
2023/10/26 01:25:54;;;;;;;1.25;0.30;;;;;;;;;;5042309;28;20060;-76
2023/10/26 01:28:20;;;;;;;0.43;0.20;;;;;;;;;;5065788;28;20104;-76
2023/10/26 01:30:46;;;;;;;0.20;0.20;;;;;;;;;;5070737;28;20115;-74
2023/10/26 01:33:12;;;;;;;0.10;0.10;;;;;;;;;;5070843;28;20107;-75
2023/10/26 01:35:41;;;;;;;0.03;0.03;;;;;;;;;;5065361;28;20017;-75
2023/10/26 01:38:07;;;;;;;0.10;0.10;;;;;;;;;;5051173;28;20513;-74
2023/10/26 01:40:33;;;;;;;0.10;0.10;;;;;;;;;;5050439;28;20032;-75
2023/10/26 01:42:59;;;;;;;0.10;0.10;;;;;;;;;;5051941;28;20070;-75
2023/10/26 01:45:25;;;;;;;0.30;0.20;;;;;;;;;;5051788;28;20129;-74
2023/10/26 01:47:54;;;;;;;0.57;0.35;;;;;;;;;;5035425;28;20045;-74
2023/10/26 01:50:20;;;;;;;0.47;0.13;;;;;;;;;;5048091;28;20064;-75
2023/10/26 01:52:46;;;;;;;0.50;0.20;;;;;;;;;;5050223;28;20075;-74
2023/10/26 01:55:12;;;;;;;0.10;0.10;;;;;;;;;;5051943;28;20475;-74
2023/10/26 01:57:38;;;;;;;0.10;0.10;;;;;;;;;;5058716;28;20078;-74
2023/10/26 02:00:05;;;;;;;0.20;0.20;;;;;;;;;;5071752;28;20410;-75
2023/10/26 02:02:31;;;;;;;0.10;0.10;;;;;;;;;;5048733;28;20033;-74
2023/10/26 02:04:57;;;;;;;0.95;0.10;;;;;;;;;;5051577;28;20096;-74
2023/10/26 02:07:23;;;;;;;0.17;0.17;;;;;;;;;;5051103;28;20459;-75
2023/10/26 02:09:49;;;;;;;0.45;0.20;;;;;;;;;;5059546;28;20021;-74
2023/10/26 02:12:15;;;;;;;0.10;0.10;;;;;;;;;;5062300;28;20044;-74
2023/10/26 02:14:42;;;;;;;0.73;0.30;;;;;;;;;;5066117;28;20025;-74
2023/10/26 02:17:08;;;;;;;0.10;0.10;;;;;;;;;;5055676;28;20041;-73
2023/10/26 02:19:34;;;;;;;0.10;0.10;;;;;;;;;;5054523;28;20032;-75
2023/10/26 02:22:00;;;;;;;0.22;0.15;;;;;;;;;;5058194;28;20017;-74
2023/10/26 02:24:26;;;;;;;0.43;0.22;;;;;;;;;;5061467;28;20021;-74
2023/10/26 02:26:52;;;;;;;0.15;0.15;;;;;;;;;;5065425;28;20020;-74
2023/10/26 02:29:18;;;;;;;0.10;0.10;;;;;;;;;;5070505;28;20032;-75
2023/10/26 02:31:44;;;;;;;0.15;0.15;;;;;;;;;;5075484;28;20471;-74
2023/10/26 02:34:10;;;;;;;0.10;0.10;;;;;;;;;;5069436;28;20036;-73
2023/10/26 02:36:36;;;;;;;0.17;0.17;;;;;;;;;;5054645;28;20025;-74
2023/10/26 02:39:03;;;;;;;0.60;0.10;;;;;;;;;;5043070;28;20400;-74
2023/10/26 02:41:29;;;;;;;0.32;0.17;;;;;;;;;;5050209;28;20494;-75
2023/10/26 02:43:55;;;;;;;0.22;0.10;;;;;;;;;;5055034;28;20025;-74
2023/10/26 02:46:23;;;;;;;0.17;0.10;;;;;;;;;;5055137;28;20491;-74
2023/10/26 02:48:49;;;;;;;0.22;0.05;;;;;;;;;;5053186;28;20060;-74
2023/10/26 02:51:15;;;;;;;0.03;0.03;;;;;;;;;;5054771;28;20060;-74
2023/10/26 02:53:42;;;;;;;0.20;0.10;;;;;;;;;;5054860;28;20040;-74
2023/10/26 02:56:08;;;;;;;0.10;0.10;;;;;;;;;;5054542;28;20506;-75
2023/10/26 02:58:34;;;;;;;0.40;0.28;;;;;;;;;;5067433;28;20029;-74
2023/10/26 03:01:00;;;;;;;0.10;0.10;;;;;;;;;;5055036;28;20073;-73
2023/10/26 03:03:27;;;;;;;0.10;0.10;;;;;;;;;;5053843;28;20040;-73
2023/10/26 03:05:53;;;;;;;0.15;0.10;;;;;;;;;;5055645;28;20096;-74
2023/10/26 03:08:20;;;;;;;0.10;0.10;;;;;;;;;;5054850;28;20032;-74
2023/10/26 03:10:46;;;;;;;0.10;0.10;;;;;;;;;;5053491;28;20025;-73
2023/10/26 03:13:12;;;;;;;0.10;0.10;;;;;;;;;;5055846;28;20044;-74
2023/10/26 03:15:38;;;;;;;0.00;0.00;;;;;;;;;;5056084;28;20018;-73
2023/10/26 03:18:04;;;;;;;0.13;0.10;;;;;;;;;;5052871;28;20120;-74
2023/10/26 03:20:32;;;;;;;0.10;0.10;;;;;;;;;;5055196;28;20438;-75
2023/10/26 03:22:58;;;;;;;0.10;0.10;;;;;;;;;;5054294;28;20017;-74
2023/10/26 03:25:24;;;;;;;0.20;0.13;;;;;;;;;;5054635;28;20017;-74
2023/10/26 03:27:50;;;;;;;0.10;0.10;;;;;;;;;;5059006;28;20025;-75
2023/10/26 03:30:17;;;;;;;0.10;0.10;;;;;;;;;;5056556;28;20061;-74
2023/10/26 03:32:44;;;;;;;0.10;0.10;;;;;;;;;;5054547;28;20021;-74
2023/10/26 03:35:10;;;;;;;0.00;0.00;;;;;;;;;;5052008;28;20017;-74
2023/10/26 03:37:37;;;;;;;0.20;0.10;;;;;;;;;;5052915;28;20121;-73
2023/10/26 03:40:06;;;;;;;0.17;0.10;;;;;;;;;;5054241;28;20039;-73
2023/10/26 03:42:32;;;;;;;0.10;0.10;;;;;;;;;;5054404;28;20025;-73
2023/10/26 03:44:59;;;;;;;0.00;0.00;;;;;;;;;;5054075;28;20044;-73
2023/10/26 03:47:25;;;;;;;0.10;0.05;;;;;;;;;;5052497;28;20025;-74
2023/10/26 03:49:52;;;;;;;0.03;0.00;;;;;;;;;;5054193;28;20025;-74
2023/10/26 03:52:21;;;;;;;0.30;0.10;;;;;;;;;;5034965;28;20060;-74
2023/10/26 03:54:47;;;;;;;0.10;0.10;;;;;;;;;;5034092;28;20014;-74
2023/10/26 03:57:14;;;;;;;0.00;0.00;;;;;;;;;;5057714;28;20032;-74
2023/10/26 03:59:40;;;;;;;0.00;0.00;;;;;;;;;;5070854;28;20387;-73
2023/10/26 04:02:07;;;;;;;0.32;0.10;;;;;;;;;;5058576;28;20364;-73
2023/10/26 04:04:33;;;;;;;0.00;0.00;;;;;;;;;;5053894;28;20514;-73
2023/10/26 04:06:59;;;;;;;0.10;0.10;;;;;;;;;;5053629;28;20070;-74
2023/10/26 04:09:25;;;;;;;0.10;0.10;;;;;;;;;;5053618;28;20387;-73
2023/10/26 04:11:51;;;;;;;0.32;0.10;;;;;;;;;;5044040;28;20030;-73
2023/10/26 04:14:18;;;;;;;0.00;0.00;;;;;;;;;;5046205;28;20051;-73
2023/10/26 04:16:47;;;;;;;0.10;0.10;;;;;;;;;;5052875;28;20519;-73
2023/10/26 04:19:14;;;;;;;0.00;0.00;;;;;;;;;;5051910;28;20106;-75
2023/10/26 04:21:40;;;;;;;0.00;0.00;;;;;;;;;;5048277;28;20415;-74
2023/10/26 04:24:06;;;;;;;0.00;0.00;;;;;;;;;;5033394;28;20026;-73
2023/10/26 04:26:32;;;;;;;0.00;0.00;;;;;;;;;;5055041;28;20035;-73
2023/10/26 04:28:58;;;;;;;0.05;0.00;;;;;;;;;;5083311;28;20081;-73
2023/10/26 04:31:25;;;;;;;0.15;0.10;;;;;;;;;;5072199;28;20573;-74
2023/10/26 04:33:51;;;;;;;0.00;0.00;;;;;;;;;;5053428;28;20050;-75
2023/10/26 04:36:17;;;;;;;0.10;0.10;;;;;;;;;;5053332;28;20554;-73
2023/10/26 04:38:43;;;;;;;0.35;0.15;;;;;;;;;;5054146;28;20083;-73
2023/10/26 04:41:09;;;;;;;0.00;0.00;;;;;;;;;;5053988;28;20479;-73
2023/10/26 04:43:35;;;;;;;0.10;0.00;;;;;;;;;;5052984;28;20044;-74
2023/10/26 04:46:01;;;;;;;0.00;0.00;;;;;;;;;;5053611;28;20037;-73
2023/10/26 04:48:28;;;;;;;0.00;0.00;;;;;;;;;;5053725;28;20483;-72
2023/10/26 04:50:55;;;;;;;0.35;0.20;;;;;;;;;;5053809;28;20375;-74
2023/10/26 04:53:21;;;;;;;0.00;0.00;;;;;;;;;;5042375;28;20105;-74
2023/10/26 04:55:47;;;;;;;0.10;0.10;;;;;;;;;;5038217;28;20036;-75
2023/10/26 04:58:14;;;;;;;0.20;0.20;;;;;;;;;;5073500;28;20036;-74
2023/10/26 05:00:41;;;;;;;0.10;0.10;;;;;;;;;;5076291;28;20471;-73
2023/10/26 05:03:07;;;;;;;0.20;0.10;;;;;;;;;;5067445;28;20111;-74
2023/10/26 05:05:34;;;;;;;0.25;0.10;;;;;;;;;;5053169;28;20078;-74
2023/10/26 05:08:00;;;;;;;0.10;0.10;;;;;;;;;;5052310;28;20601;-75
2023/10/26 05:10:27;;;;;;;0.20;0.10;;;;;;;;;;5052535;28;20033;-75
2023/10/26 05:12:53;;;;;;;0.08;0.08;;;;;;;;;;5051865;28;20448;-74
2023/10/26 05:15:19;;;;;;;0.10;0.10;;;;;;;;;;5033471;28;20072;-74
2023/10/26 05:17:46;;;;;;;0.10;0.10;;;;;;;;;;5033495;28;20103;-75
2023/10/26 05:20:12;;;;;;;0.20;0.10;;;;;;;;;;5034625;28;20087;-75
2023/10/26 05:22:38;;;;;;;0.10;0.10;;;;;;;;;;5031579;28;20076;-75
2023/10/26 05:25:04;;;;;;;0.20;0.13;;;;;;;;;;5047023;28;20140;-74
2023/10/26 05:27:32;;;;;;;0.35;0.20;;;;;;;;;;5059986;28;20074;-75
2023/10/26 05:29:58;;;;;;;0.10;0.10;;;;;;;;;;5071982;28;20020;-76
2023/10/26 05:32:24;;;;;;;0.15;0.15;;;;;;;;;;5072825;28;20021;-76
2023/10/26 05:34:50;;;;;;;0.00;0.00;;;;;;;;;;5061346;28;20025;-77
2023/10/26 05:37:16;;;;;;;0.10;0.10;;;;;;;;;;5052027;28;20090;-76
2023/10/26 05:39:42;;;;;;;0.10;0.10;;;;;;;;;;5054071;28;20033;-76
2023/10/26 05:42:09;;;;;;;0.22;0.10;;;;;;;;;;5055050;28;20475;-78
2023/10/26 05:44:35;;;;;;;0.35;0.20;;;;;;;;;;5051939;28;20029;-78
2023/10/26 05:47:01;;;;;;;0.17;0.17;;;;;;;;;;5035374;28;20033;-77
2023/10/26 05:49:27;;;;;;;0.13;0.10;;;;;;;;;;5050544;28;20104;-77
2023/10/26 05:51:53;;;;;;;0.20;0.20;;;;;;;;;;5032116;28;20026;-77
2023/10/26 05:54:20;;;;;;;0.20;0.20;;;;;;;;;;5034070;28;20021;-76
2023/10/26 05:56:46;;;;;;;0.25;0.20;;;;;;;;;;5054552;28;20078;-77
2023/10/26 05:59:12;;;;;;;0.38;0.10;;;;;;;;;;5074219;28;20043;-78
2023/10/26 06:01:38;;;;;;;0.20;0.20;;;;;;;;;;5082504;28;20025;-76
2023/10/26 06:04:04;;;;;;;0.32;0.30;;;;;;;;;;5081636;28;20036;-78
2023/10/26 06:06:30;;;;;;;0.30;0.30;;;;;;;;;;5046649;28;20029;-77
2023/10/26 06:08:59;;;;;;;0.30;0.30;;;;;;;;;;5035302;28;20395;-76
2023/10/26 06:11:25;;;;;;;0.40;0.40;;;;;;;;;;5036963;28;20029;-77
2023/10/26 06:13:52;;;;;;;0.10;0.10;;;;;;;;;;5037090;28;20074;-77
2023/10/26 06:16:18;;;;;;;1.58;0.20;;;;;;;;;;5037395;28;20064;-77
2023/10/26 06:18:44;;;;;;;0.52;0.40;;;;;;;;;;5037305;28;20582;-77
2023/10/26 06:21:10;;;;;;;0.65;0.20;;;;;;;;;;5038101;28;20523;-76
2023/10/26 06:23:36;;;;;;;0.40;0.22;;;;;;;;;;5039331;28;20104;-76
2023/10/26 06:26:04;;;;;;;0.20;0.20;;;;;;;;;;5048235;28;20024;-76
2023/10/26 06:28:30;;;;;;;0.85;0.40;;;;;;;;;;5090738;28;20021;-75
2023/10/26 06:30:56;;;;;;;0.30;0.30;;;;;;;;;;5096808;28;20056;-75
2023/10/26 06:33:25;;;;;;;2.03;0.30;;;;;;;;;;5091327;28;20074;-76
2023/10/26 06:35:51;;;;;;;0.90;0.20;;;;;;;;;;5076501;28;20017;-76
2023/10/26 06:38:17;;;;;;;0.40;0.30;;;;;;;;;;5035881;28;20018;-76
2023/10/26 06:40:45;;;;;;;0.60;0.15;;;;;;;;;;5036988;28;20022;-75
2023/10/26 06:43:11;;;;;;;0.52;0.30;;;;;;;;;;5036698;28;20486;-76
2023/10/26 06:45:37;;;;;;;0.40;0.20;;;;;;;;;;5037729;28;20029;-78
2023/10/26 06:48:03;;;;;;;0.20;0.20;;;;;;;;;;5052608;28;20545;-77
2023/10/26 06:50:29;;;;;;;0.40;0.35;;;;;;;;;;5038657;28;20033;-76
2023/10/26 06:52:55;;;;;;;0.93;0.30;;;;;;;;;;5038286;28;20025;-77
2023/10/26 06:55:21;;;;;;;0.43;0.20;;;;;;;;;;5036976;28;20025;-75
2023/10/26 06:57:47;;;;;;;0.30;0.20;;;;;;;;;;5066920;28;20491;-76
2023/10/26 07:00:14;;;;;;;0.63;0.30;;;;;;;;;;5070147;28;20036;-75
2023/10/26 07:02:40;;;;;;;0.35;0.15;;;;;;;;;;5070300;28;20025;-77
2023/10/26 07:05:06;;;;;;;1.08;0.30;;;;;;;;;;5064675;28;20029;-76
2023/10/26 07:07:33;;;;;;;1.65;0.40;;;;;;;;;;5057501;28;20155;-77
2023/10/26 07:10:00;;;;;;;0.32;0.30;;;;;;;;;;5067687;28;20025;-76
2023/10/26 07:12:26;;;;;;;0.40;0.30;;;;;;;;;;5078512;28;20031;-76
2023/10/26 07:14:54;;;;;;;0.30;0.30;;;;;;;;;;5078747;28;20021;-76
2023/10/26 07:17:23;;;;;;;0.50;0.50;;;;;;;;;;5075548;28;20009;-76
2023/10/26 07:19:50;;;;;;;0.55;0.55;;;;;;;;;;5058656;28;20013;-76
2023/10/26 07:22:17;;;;;;;0.57;0.57;;;;;;;;;;5058594;28;20072;-76
2023/10/26 07:24:43;;;;;;;1.60;0.50;;;;;;;;;;5056879;28;20028;-76
2023/10/26 07:27:09;;;;;;;0.30;0.30;;;;;;;;;;5084423;28;20017;-74
2023/10/26 07:29:35;;;;;;;0.65;0.40;;;;;;;;;;5091954;28;20040;-76
2023/10/26 07:32:01;;;;;;;0.55;0.30;;;;;;;;;;5080695;28;20021;-77
2023/10/26 07:34:27;;;;;;;0.32;0.30;;;;;;;;;;5093453;28;20040;-74
2023/10/26 07:36:53;;;;;;;0.20;0.20;;;;;;;;;;5095550;28;20106;-76
2023/10/26 07:39:21;;;;;;;1.48;0.40;;;;;;;;;;5081101;28;20013;-76
2023/10/26 07:41:47;;;;;;;0.55;0.20;;;;;;;;;;5074805;28;20016;-76
2023/10/26 07:44:13;;;;;;;0.30;0.30;;;;;;;;;;5073905;28;20006;-76
2023/10/26 07:46:39;;;;;;;1.73;0.65;;;;;;;;;;5073572;28;20033;-76
2023/10/26 07:49:05;;;;;;;0.50;0.43;;;;;;;;;;5064194;28;20039;-76
2023/10/26 07:51:31;;;;;;;0.40;0.40;;;;;;;;;;5051693;28;20028;-76
2023/10/26 07:53:57;;;;;;;0.75;0.30;;;;;;;;;;5055929;28;20084;-76
2023/10/26 07:56:23;;;;;;;0.50;0.50;;;;;;;;;;5069050;28;20013;-77
2023/10/26 07:58:50;;;;;;;0.77;0.50;;;;;;;;;;5089668;28;20005;-77
2023/10/26 08:01:16;;;;;;;0.95;0.30;;;;;;;;;;5074768;28;20037;-76
2023/10/26 08:03:42;;;;;;;0.20;0.20;;;;;;;;;;5069315;28;20031;-76
2023/10/26 08:06:10;;;;;;;0.35;0.28;;;;;;;;;;5054935;28;20025;-78
2023/10/26 08:08:36;;;;;;;0.57;0.35;;;;;;;;;;5054620;28;20093;-77
2023/10/26 08:11:12;;;;;;;1.08;0.47;;;;;;;;;;5035896;28;20084;-76
2023/10/26 08:13:39;;;;;;;0.77;0.40;;;;;;;;;;5034628;28;20507;-77
2023/10/26 08:16:05;;;;;;;1.25;0.70;;;;;;;;;;5034884;28;20040;-77
2023/10/26 08:18:31;;;;;;;1.65;0.50;;;;;;;;;;5034647;28;20030;-77
2023/10/26 08:20:57;;;;;;;0.68;0.20;;;;;;;;;;5050087;28;20052;-77
2023/10/26 08:23:23;;;;;;;0.50;0.30;;;;;;;;;;5036096;28;20030;-76
2023/10/26 08:25:50;;;;;;;0.40;0.40;;;;;;;;;;5036868;28;20364;-76
2023/10/26 08:28:16;;;;;;;0.50;0.45;;;;;;;;;;5074857;28;20043;-76
2023/10/26 08:30:43;;;;;;;0.65;0.65;;;;;;;;;;5064059;28;20028;-77
2023/10/26 08:33:09;;;;;;;0.50;0.35;;;;;;;;;;5070069;28;20029;-76
2023/10/26 08:35:35;;;;;;;0.30;0.30;;;;;;;;;;5061420;28;20044;-77
2023/10/26 08:38:01;;;;;;;0.20;0.20;;;;;;;;;;5053779;28;20021;-77
2023/10/26 08:40:27;;;;;;;0.30;0.30;;;;;;;;;;5048205;28;20043;-77
2023/10/26 08:42:53;;;;;;;0.50;0.40;;;;;;;;;;5033875;28;20132;-77
2023/10/26 08:45:21;;;;;;;0.52;0.52;;;;;;;;;;5034024;28;20044;-77
2023/10/26 08:47:51;;;;;;;3.22;0.63;;;;;;;;;;5033705;28;20136;-76
2023/10/26 08:50:21;;;;;;;0.50;0.50;;;;;;;;;;5035030;28;20018;-76
2023/10/26 08:52:48;;;;;;;1.52;0.77;;;;;;;;;;5053885;28;20021;-76
2023/10/26 08:55:14;;;;;;;0.80;0.80;;;;;;;;;;5054028;28;20032;-76
2023/10/26 08:57:47;;;;;;;0.85;0.82;;;;;;;;;;5069286;28;20024;-75
2023/10/26 09:00:13;;;;;;;1.00;0.90;;;;;;;;;;5073964;28;20032;-76
2023/10/26 09:02:39;;;;;;;1.50;0.95;;;;;;;;;;5054217;28;20465;-76
2023/10/26 09:05:08;;;;;;;1.27;0.93;;;;;;;;;;5053893;28;20021;-77
2023/10/26 09:07:34;;;;;;;0.85;0.82;;;;;;;;;;5053527;28;20040;-77
2023/10/26 09:10:01;;;;;;;1.02;0.88;;;;;;;;;;5054730;28;20021;-77
2023/10/26 09:12:27;;;;;;;1.73;0.70;;;;;;;;;;5056298;28;20025;-77
2023/10/26 09:15:06;;;;;;;1.45;0.80;;;;;;;;;;5055013;28;20020;-77
2023/10/26 09:17:33;;;;;;;1.08;0.75;;;;;;;;;;5056716;28;20491;-77
2023/10/26 09:19:59;;;;;;;0.73;0.60;;;;;;;;;;5056479;28;20021;-77
2023/10/26 09:22:46;;;;;;;0.60;0.60;;;;;;;;;;5045154;28;20041;-77
2023/10/26 09:25:13;;;;;;;0.63;0.63;;;;;;;;;;5035063;28;20035;-77
2023/10/26 09:27:40;;;;;;;0.70;0.50;;;;;;;;;;5069542;28;20454;-77
2023/10/26 09:30:07;;;;;;;0.50;0.50;;;;;;;;;;5074409;28;20023;-77
2023/10/26 09:32:33;;;;;;;0.60;0.60;;;;;;;;;;5063766;28;20013;-77
2023/10/26 09:34:59;;;;;;;0.63;0.50;;;;;;;;;;5055316;28;20045;-77
2023/10/26 09:37:26;;;;;;;0.70;0.70;;;;;;;;;;5057086;28;20035;-77
2023/10/26 09:39:52;;;;;;;0.30;0.30;;;;;;;;;;5056644;28;20399;-76
2023/10/26 09:42:19;;;;;;;0.50;0.50;;;;;;;;;;5053286;28;20496;-76
2023/10/26 09:44:45;;;;;;;0.82;0.80;;;;;;;;;;5043672;28;20040;-77
2023/10/26 09:47:12;;;;;;;0.60;0.60;;;;;;;;;;5056420;28;20087;-77
2023/10/26 09:49:38;;;;;;;0.90;0.75;;;;;;;;;;5056010;28;20068;-76
2023/10/26 09:52:05;;;;;;;1.15;0.77;;;;;;;;;;5057404;28;20029;-76
2023/10/26 09:54:35;;;;;;;0.73;0.73;;;;;;;;;;5037204;28;20021;-76
2023/10/26 09:57:17;;;;;;;0.77;0.68;;;;;;;;;;5061979;28;20020;-77
2023/10/26 09:59:44;;;;;;;0.60;0.60;;;;;;;;;;5077443;28;20517;-76
2023/10/26 10:02:16;;;;;;;1.00;0.90;;;;;;;;;;5076886;28;20625;-77
2023/10/26 10:04:43;;;;;;;1.05;0.93;;;;;;;;;;5037256;28;20017;-77
2023/10/26 10:07:09;;;;;;;2.13;1.00;;;;;;;;;;5035643;28;20026;-76
2023/10/26 10:09:54;;;;;;;1.17;0.95;;;;;;;;;;5037653;28;20443;-77
2023/10/26 10:12:26;;;;;;;0.82;0.77;;;;;;;;;;5035729;28;20463;-77
2023/10/26 10:14:54;;;;;;;0.90;0.90;;;;;;;;;;5037078;28;20423;-77
2023/10/26 10:17:43;;;;;;;1.42;0.90;;;;;;;;;;5037844;28;20036;-77
2023/10/26 10:20:16;;;;;;;0.60;0.60;;;;;;;;;;5037188;28;20052;-76
2023/10/26 10:22:45;;;;;;;0.70;0.70;;;;;;;;;;5037234;28;20105;-77
2023/10/26 10:25:12;;;;;;;0.52;0.52;;;;;;;;;;5053776;28;20029;-76
2023/10/26 10:27:38;;;;;;;0.60;0.60;;;;;;;;;;5071477;28;20024;-77
2023/10/26 10:30:07;;;;;;;0.30;0.30;;;;;;;;;;5077827;28;20074;-76
2023/10/26 10:32:48;;;;;;;0.52;0.52;;;;;;;;;;5090152;28;20050;-75
2023/10/26 10:35:34;;;;;;;0.40;0.40;;;;;;;;;;5081164;28;20063;-77
2023/10/26 10:38:13;;;;;;;0.38;0.30;;;;;;;;;;5059029;28;20074;-77
2023/10/26 10:40:40;;;;;;;0.65;0.40;;;;;;;;;;5057332;28;20025;-77
2023/10/26 10:43:06;;;;;;;0.75;0.30;;;;;;;;;;5056980;28;20025;-77
2023/10/26 10:45:32;;;;;;;0.43;0.43;;;;;;;;;;5043965;28;20025;-77
2023/10/26 10:47:58;;;;;;;0.50;0.40;;;;;;;;;;5037913;28;20021;-77
2023/10/26 10:50:26;;;;;;;0.60;0.40;;;;;;;;;;5039418;28;20640;-76
2023/10/26 10:52:53;;;;;;;0.40;0.40;;;;;;;;;;5037431;28;20058;-77
2023/10/26 10:55:29;;;;;;;0.40;0.40;;;;;;;;;;5039169;28;20124;-76
2023/10/26 10:57:56;;;;;;;0.22;0.22;;;;;;;;;;5075147;28;20029;-76
2023/10/26 11:00:24;;;;;;;0.30;0.30;;;;;;;;;;5079563;28;20066;-75
2023/10/26 11:02:56;;;;;;;0.30;0.30;;;;;;;;;;5083323;28;20063;-76
2023/10/26 11:05:22;;;;;;;0.35;0.30;;;;;;;;;;5069606;28;20017;-76
2023/10/26 11:07:52;;;;;;;0.20;0.20;;;;;;;;;;5046882;28;20095;-76
2023/10/26 11:10:18;;;;;;;0.40;0.40;;;;;;;;;;5047392;28;20029;-76
2023/10/26 11:12:51;;;;;;;0.30;0.30;;;;;;;;;;5049051;28;20028;-76
2023/10/26 11:15:17;;;;;;;0.22;0.22;;;;;;;;;;5050393;28;20040;-77
2023/10/26 11:17:43;;;;;;;0.22;0.22;;;;;;;;;;5045524;28;20059;-76
2023/10/26 11:20:33;;;;;;;0.43;0.30;;;;;;;;;;5040854;28;20052;-77
2023/10/26 11:22:59;;;;;;;0.20;0.20;;;;;;;;;;5032987;28;20090;-77
2023/10/26 11:25:26;;;;;;;0.30;0.30;;;;;;;;;;5039405;28;20100;-77
2023/10/26 11:27:52;;;;;;;0.28;0.28;;;;;;;;;;5059251;28;20045;-78
2023/10/26 11:30:18;;;;;;;0.30;0.30;;;;;;;;;;5077838;28;20036;-76
2023/10/26 11:32:44;;;;;;;0.40;0.40;;;;;;;;;;5074842;28;20032;-76
2023/10/26 11:35:13;;;;;;;0.90;0.40;;;;;;;;;;5071144;28;20438;-76
2023/10/26 11:38:02;;;;;;;0.47;0.47;;;;;;;;;;5055710;28;20051;-76
2023/10/26 11:40:32;;;;;;;0.30;0.30;;;;;;;;;;5056254;28;20091;-77
2023/10/26 11:42:59;;;;;;;0.35;0.35;;;;;;;;;;5056214;28;20021;-77
2023/10/26 11:45:26;;;;;;;0.60;0.60;;;;;;;;;;5054158;28;20021;-76
2023/10/26 11:47:53;;;;;;;0.45;0.38;;;;;;;;;;5036094;28;20025;-77
2023/10/26 11:50:29;;;;;;;0.38;0.38;;;;;;;;;;5036477;28;20053;-77
2023/10/26 11:52:56;;;;;;;0.63;0.50;;;;;;;;;;5039710;28;20032;-77
2023/10/26 11:55:24;;;;;;;0.50;0.30;;;;;;;;;;5057144;28;20033;-76
2023/10/26 11:57:51;;;;;;;0.65;0.35;;;;;;;;;;5078378;28;20009;-76
2023/10/26 12:00:18;;;;;;;0.55;0.55;;;;;;;;;;5092389;28;20024;-76
2023/10/26 12:02:44;;;;;;;0.45;0.45;;;;;;;;;;5078452;28;20043;-76
2023/10/26 12:05:18;;;;;;;0.20;0.20;;;;;;;;;;5076674;28;20025;-77
2023/10/26 12:07:44;;;;;;;0.20;0.20;;;;;;;;;;5060699;28;20043;-77
2023/10/26 12:10:11;;;;;;;0.38;0.30;;;;;;;;;;5064124;28;20025;-77
2023/10/26 12:12:37;;;;;;;0.40;0.40;;;;;;;;;;5058809;28;20459;-78
2023/10/26 12:15:04;;;;;;;0.32;0.32;;;;;;;;;;5056209;28;20032;-77
2023/10/26 12:17:30;;;;;;;0.20;0.20;;;;;;;;;;5045254;28;20065;-77
2023/10/26 12:19:56;;;;;;;0.20;0.20;;;;;;;;;;5036034;28;20036;-77
2023/10/26 12:22:22;;;;;;;0.30;0.30;;;;;;;;;;5036075;28;20473;-77
2023/10/26 12:24:48;;;;;;;0.90;0.50;;;;;;;;;;5037467;28;20484;-77
2023/10/26 12:27:16;;;;;;;0.40;0.30;;;;;;;;;;5060789;28;20024;-77
2023/10/26 12:29:46;;;;;;;0.20;0.20;;;;;;;;;;5064260;28;20517;-77
2023/10/26 12:32:12;;;;;;;0.40;0.40;;;;;;;;;;5056775;28;20070;-77
2023/10/26 12:34:39;;;;;;;0.73;0.32;;;;;;;;;;5058963;28;20040;-77
2023/10/26 12:37:05;;;;;;;0.63;0.50;;;;;;;;;;5072331;28;20021;-76
2023/10/26 12:39:31;;;;;;;0.50;0.50;;;;;;;;;;5064462;28;20024;-77
2023/10/26 12:41:57;;;;;;;1.20;0.80;;;;;;;;;;5057318;28;20095;-77
2023/10/26 12:44:24;;;;;;;0.88;0.43;;;;;;;;;;5056957;28;20149;-77
2023/10/26 12:46:53;;;;;;;0.50;0.50;;;;;;;;;;5059831;28;20029;-77
2023/10/26 12:49:21;;;;;;;0.57;0.50;;;;;;;;;;5037697;28;20395;-77
2023/10/26 12:51:47;;;;;;;1.50;0.52;;;;;;;;;;5036373;28;20032;-76
2023/10/26 12:54:13;;;;;;;0.73;0.52;;;;;;;;;;5036340;28;20498;-77
2023/10/26 12:56:40;;;;;;;0.50;0.50;;;;;;;;;;5053054;28;20027;-77
2023/10/26 12:59:06;;;;;;;0.52;0.50;;;;;;;;;;5067050;28;20055;-77
2023/10/26 13:01:32;;;;;;;1.10;0.50;;;;;;;;;;5077685;28;20028;-77
2023/10/26 13:03:58;;;;;;;0.40;0.40;;;;;;;;;;5077515;28;20031;-77
2023/10/26 13:06:24;;;;;;;1.00;0.55;;;;;;;;;;5076761;28;20055;-77
2023/10/26 13:08:50;;;;;;;2.63;1.00;;;;;;;;;;5068590;28;20025;-76
2023/10/26 13:11:16;;;;;;;1.27;0.73;;;;;;;;;;5054548;28;20111;-77
2023/10/26 13:13:42;;;;;;;0.85;0.70;;;;;;;;;;5056314;28;20025;-77
2023/10/26 13:16:09;;;;;;;1.63;0.85;;;;;;;;;;5055205;28;20029;-76
2023/10/26 13:18:38;;;;;;;1.38;0.57;;;;;;;;;;5054144;28;20612;-76
2023/10/26 13:21:05;;;;;;;2.25;0.70;;;;;;;;;;5059310;28;20021;-75
2023/10/26 13:23:31;;;;;;;1.10;0.60;;;;;;;;;;5074802;28;20226;-77
2023/10/26 13:25:57;;;;;;;0.82;0.60;;;;;;;;;;5075931;28;20025;-76
2023/10/26 13:28:23;;;;;;;0.73;0.60;;;;;;;;;;5086797;28;20035;-76
2023/10/26 13:30:50;;;;;;;0.63;0.60;;;;;;;;;;5076199;28;20047;-76
2023/10/26 13:33:16;;;;;;;1.20;1.10;;;;;;;;;;5073475;28;20032;-75
2023/10/26 13:35:43;;;;;;;1.80;1.27;;;;;;;;;;5072315;28;20033;-76
2023/10/26 13:38:12;;;;;;;1.67;1.38;;;;;;;;;;5070088;28;20066;-77
2023/10/26 13:40:45;;;;;;;1.83;1.55;;;;;;;;;;5042538;28;20115;-77
2023/10/26 13:43:11;;;;;;;1.00;1.00;;;;;;;;;;5035733;28;20026;-78
2023/10/26 13:45:38;;;;;;;0.90;0.90;;;;;;;;;;5033772;28;20029;-77
2023/10/26 13:48:08;;;;;;;1.92;0.82;;;;;;;;;;5036270;28;20049;-77
2023/10/26 13:50:34;;;;;;;1.33;0.90;;;;;;;;;;5043948;28;20047;-77
2023/10/26 13:53:01;;;;;;;1.33;0.82;;;;;;;;;;5040841;28;20036;-77
2023/10/26 13:55:27;;;;;;;0.70;0.70;;;;;;;;;;5035852;28;20021;-77
2023/10/26 13:57:53;;;;;;;0.50;0.50;;;;;;;;;;5070247;28;20535;-77
2023/10/26 14:00:20;;;;;;;1.50;1.40;;;;;;;;;;5064327;28;20426;-77
2023/10/26 14:02:46;;;;;;;0.88;0.70;;;;;;;;;;5033593;28;20032;-77
2023/10/26 14:05:12;;;;;;;1.38;0.75;;;;;;;;;;5034957;28;20030;-77
2023/10/26 14:07:39;;;;;;;0.82;0.73;;;;;;;;;;5034557;28;20113;-77
2023/10/26 14:10:06;;;;;;;1.30;0.70;;;;;;;;;;5034254;28;20504;-77
2023/10/26 14:12:32;;;;;;;1.02;0.90;;;;;;;;;;5051276;28;20036;-77
2023/10/26 14:14:58;;;;;;;1.52;0.50;;;;;;;;;;5039960;28;20021;-77
2023/10/26 14:17:24;;;;;;;1.60;0.77;;;;;;;;;;5036754;28;20037;-77
2023/10/26 14:19:50;;;;;;;2.00;1.33;;;;;;;;;;5038294;28;20021;-77
2023/10/26 14:22:16;;;;;;;0.45;0.45;;;;;;;;;;5040807;28;20022;-77
2023/10/26 14:24:42;;;;;;;1.85;0.90;;;;;;;;;;5040624;28;20025;-77
2023/10/26 14:27:09;;;;;;;2.65;0.90;;;;;;;;;;5066051;28;20088;-77
2023/10/26 14:29:35;;;;;;;1.30;0.85;;;;;;;;;;5082420;28;20513;-76
2023/10/26 14:32:01;;;;;;;2.15;0.90;;;;;;;;;;5059722;28;20148;-76
2023/10/26 14:34:27;;;;;;;3.10;0.90;;;;;;;;;;5046516;28;20032;-76
2023/10/26 14:36:53;;;;;;;2.58;0.90;;;;;;;;;;5053612;28;20428;-77
2023/10/26 14:39:20;;;;;;;1.85;0.90;;;;;;;;;;5040417;28;20388;-77
2023/10/26 14:41:46;;;;;;;2.45;0.65;;;;;;;;;;5039505;28;20075;-76